Virgem da Lapa, Brazil
Current Conditions -  °F | °C
As of 4:00 PM on Saturday 25 Oct 2014 (Local Time) from SBMK Reporting Station
Scattered Clouds Scattered Clouds  
Wind Chill: 91°   Ceiling: Unl
Heat Index: 91°   Visibility: 6mi
Dew Point: 46°   Wind: 8mph
Humidity: 21%   Direction: 10°N
Pressure: 29.88"   Gusts: NA
Location:  16.8°S, 42.34°W
Report Text: SBMK 251800Z 01007KT 320V060 9999 SCT048 SCT100 33/08 Q1012
Loading
Personal Weather Stations






























Interactive Weather Map
Tropical Storm Tracking
New forecast layout! Learn more

10-Day Weather Forecast

Advertisements
Track Severe Weather on mobile